»·PEaware :: N1021W KSBP-KSNA

N1021W :: KSBP-KSNA

FLIGHT INFORMATION

Flight Status: Arrived
Operator: Privately registered:
United States
More flights under this callsign
Pilot: Larry S. (744)
Aircraft: BEECH AIRCRAFT DEBONAIR BONANZA
(BE33)
More flights by this aircraft type
Origin: KSBP San Luis Co Regl
United States
Destination: KSNA John Wayne-Orange Co
United States
More flights between these airports :: More routes between these airports
Route: +CREPE3 MQO V27 GVO V12 RZS V186 BAYJY V363 POXKU V8 SLI
File this flight plan on PilotEdge
Remarks:
Altitude:
(Current/Filed)
7,000ft
Speed:
(Current/Filed)
165kts
Departed: 29-Jan-13 08:27 PM
Arrived: 29-Jan-13 09:43 PM
Distance/Time
Traveled:
166nm/1:16
Distance/Time
To Go:
Arrived

Flight Plot

Page will automatically refresh every two minutes.


Map Options




Map Legend


Flown Route
Filed Route
Departure Airport
Arrival Airport
Navaid (VOR, NDB)
Fix

Horizontal Profiles

Position Reports

Time Latitude Longitude Heading Altitude Ground
Speed
29-Jan-13 19:58 35.238275 -120.639170 267 214ft 0kts
29-Jan-13 19:59 35.238275 -120.639171 267 214ft 0kts
29-Jan-13 20:00 35.238275 -120.639171 267 214ft 0kts
29-Jan-13 20:01 35.238275 -120.639172 267 214ft 0kts
29-Jan-13 20:02 35.238275 -120.639173 267 214ft 0kts
29-Jan-13 20:03 35.238275 -120.639174 267 214ft 0kts
29-Jan-13 20:04 35.238275 -120.639174 267 214ft 0kts
29-Jan-13 20:05 35.238275 -120.639175 267 214ft 0kts
29-Jan-13 20:06 35.238275 -120.639176 267 214ft 0kts
29-Jan-13 20:07 35.238275 -120.639176 267 214ft 0kts
29-Jan-13 20:08 35.238275 -120.639177 267 214ft 0kts
29-Jan-13 20:09 35.238275 -120.639178 267 214ft 0kts
29-Jan-13 20:10 35.238275 -120.639178 267 214ft 0kts
29-Jan-13 20:11 35.238275 -120.639179 267 214ft 0kts
29-Jan-13 20:12 35.238275 -120.639180 267 214ft 0kts
29-Jan-13 20:13 35.238275 -120.639180 267 214ft 0kts
29-Jan-13 20:14 35.238275 -120.639181 267 214ft 0kts
29-Jan-13 20:15 35.238275 -120.639182 267 214ft 0kts
29-Jan-13 20:16 35.238275 -120.639183 267 214ft 0kts
29-Jan-13 20:17 35.238275 -120.639183 267 214ft 0kts
29-Jan-13 20:18 35.238275 -120.639184 267 214ft 0kts
29-Jan-13 20:19 35.238275 -120.639185 267 214ft 0kts
29-Jan-13 20:20 35.238275 -120.639186 267 214ft 0kts
29-Jan-13 20:21 35.237965 -120.639765 232 214ft 1kts
29-Jan-13 20:22 35.237817 -120.639857 130 214ft 1kts
29-Jan-13 20:23 35.236385 -120.637383 123 214ft 9kts
29-Jan-13 20:24 35.234941 -120.634752 123 214ft 8kts
29-Jan-13 20:25 35.233375 -120.632542 207 214ft 4kts
29-Jan-13 20:26 35.233326 -120.632579 212 214ft 0kts
29-Jan-13 20:27 35.232869 -120.633083 260 214ft 9kts
29-Jan-13 20:28 35.238706 -120.643762 307 458ft 93kts
29-Jan-13 20:29 35.254993 -120.673628 311 1667ft 111kts
29-Jan-13 20:30 35.273343 -120.707529 312 2794ft 117kts
29-Jan-13 20:30 35.286419 -120.737235 307 3609ft 124kts
29-Jan-13 20:32 35.293631 -120.785108 230 4539ft 151kts
29-Jan-13 20:32 35.263234 -120.774231 124 4819ft 151kts
29-Jan-13 20:34 35.226329 -120.735241 133 5556ft 148kts
29-Jan-13 20:34 35.199927 -120.710517 133 6109ft 139kts
29-Jan-13 20:35 35.170157 -120.682649 131 6777ft 130kts
29-Jan-13 20:37 35.134387 -120.648993 133 6996ft 154kts
29-Jan-13 20:37 35.104806 -120.621464 133 6994ft 166kts
29-Jan-13 20:38 35.066543 -120.585828 134 6992ft 176kts
29-Jan-13 20:40 35.020650 -120.543119 134 6992ft 178kts
29-Jan-13 20:40 34.987583 -120.512351 134 6993ft 179kts
29-Jan-13 20:41 34.947970 -120.475549 134 6983ft 179kts
29-Jan-13 20:42 34.908234 -120.438673 134 6979ft 179kts
29-Jan-13 20:43 34.868667 -120.402023 134 6980ft 178kts
29-Jan-13 20:44 34.829104 -120.365402 134 6981ft 178kts
29-Jan-13 20:45 34.789498 -120.328782 134 6980ft 179kts
29-Jan-13 20:46 34.749764 -120.292111 134 6980ft 179kts
29-Jan-13 20:47 34.709973 -120.255438 134 6980ft 179kts
29-Jan-13 20:48 34.670021 -120.218641 134 6963ft 180kts
29-Jan-13 20:49 34.630022 -120.181863 135 6953ft 180kts
29-Jan-13 20:50 34.591345 -120.146421 134 6941ft 171kts
29-Jan-13 20:51 34.552894 -120.111055 134 6943ft 175kts
29-Jan-13 20:52 34.529667 -120.066034 84 6947ft 157kts
29-Jan-13 20:53 34.526050 -120.012693 87 6982ft 158kts
29-Jan-13 20:54 34.522178 -119.957351 98 6975ft 176kts
29-Jan-13 20:55 34.517825 -119.895250 87 6979ft 188kts
29-Jan-13 20:56 34.513550 -119.832547 88 6974ft 186kts
29-Jan-13 20:57 34.507963 -119.769022 111 6972ft 193kts
29-Jan-13 20:58 34.482475 -119.722213 116 6972ft 154kts
29-Jan-13 20:59 34.458788 -119.677881 114 6976ft 160kts
29-Jan-13 21:00 34.433370 -119.630904 114 6978ft 172kts
29-Jan-13 21:01 34.406658 -119.581908 114 6978ft 175kts
29-Jan-13 21:02 34.379909 -119.532955 114 6980ft 171kts
29-Jan-13 21:03 34.354838 -119.487084 115 6983ft 160kts
29-Jan-13 21:04 34.330455 -119.442385 116 6985ft 158kts
29-Jan-13 21:05 34.318148 -119.395259 80 6988ft 148kts
29-Jan-13 21:06 34.321870 -119.345797 82 6985ft 147kts
29-Jan-13 21:07 34.325483 -119.296389 82 6984ft 147kts
29-Jan-13 21:08 34.329389 -119.242964 91 6985ft 171kts
29-Jan-13 21:09 34.333997 -119.181813 84 6988ft 191kts
29-Jan-13 21:10 34.338971 -119.116741 82 6986ft 196kts
29-Jan-13 21:11 34.343898 -119.051111 90 7002ft 188kts
29-Jan-13 21:12 34.348148 -118.993817 85 6984ft 157kts
29-Jan-13 21:13 34.351787 -118.942744 84 6985ft 149kts
29-Jan-13 21:14 34.355400 -118.892990 85 6965ft 148kts
29-Jan-13 21:15 34.344054 -118.846059 111 6958ft 148kts
29-Jan-13 21:16 34.328109 -118.798655 102 6978ft 159kts
29-Jan-13 21:17 34.310552 -118.746892 103 6981ft 171kts
29-Jan-13 21:18 34.292080 -118.693082 104 6972ft 171kts
29-Jan-13 21:19 34.274207 -118.641091 103 6962ft 168kts
29-Jan-13 21:20 34.255775 -118.587088 104 6987ft 174kts
29-Jan-13 21:21 34.237423 -118.533927 103 6976ft 170kts
29-Jan-13 21:22 34.219216 -118.480547 102 6982ft 173kts
29-Jan-13 21:23 34.202743 -118.425477 101 6989ft 174kts
29-Jan-13 21:24 34.186213 -118.370685 101 6992ft 174kts
29-Jan-13 21:25 34.169488 -118.315643 102 6995ft 176kts
29-Jan-13 21:26 34.152529 -118.260028 103 6994ft 177kts
29-Jan-13 21:27 34.135452 -118.204109 103 6993ft 177kts
29-Jan-13 21:28 34.118520 -118.148273 102 6993ft 177kts
29-Jan-13 21:29 34.101524 -118.092324 103 6990ft 177kts
29-Jan-13 21:30 34.084371 -118.036446 101 6993ft 178kts
29-Jan-13 21:31 34.067150 -117.980420 102 6991ft 178kts
29-Jan-13 21:32 34.049885 -117.924446 102 6990ft 178kts
29-Jan-13 21:33 34.032699 -117.868916 101 6982ft 171kts
29-Jan-13 21:34 34.016510 -117.816603 100 6980ft 163kts
29-Jan-13 21:35 33.983238 -117.780969 162 6829ft 183kts
29-Jan-13 21:36 33.932634 -117.767596 163 6148ft 185kts
29-Jan-13 21:37 33.883212 -117.763035 172 5472ft 171kts
29-Jan-13 21:38 33.836066 -117.769037 198 4781ft 176kts
29-Jan-13 21:39 33.791513 -117.795608 210 4027ft 180kts
29-Jan-13 21:40 33.747492 -117.821573 206 2834ft 169kts
29-Jan-13 21:41 33.710862 -117.847015 208 1221ft 142kts
29-Jan-13 21:42 33.679255 -117.866577 208 75ft 104kts
29-Jan-13 21:43 33.668140 -117.874280 289 58ft 5kts
29-Jan-13 21:44 33.668499 -117.874821 357 58ft 6kts
29-Jan-13 21:45 33.670808 -117.873468 27 58ft 7kts
29-Jan-13 21:46 33.672834 -117.872908 303 58ft 6kts
29-Jan-13 21:47 33.673720 -117.872850 27 58ft 0kts

Navigation Log

Ident Type
Flight plan parsing failed, navigation log unavailable